Time;durP1;ratioP1;P1;durP2;ratioP2;P2;SDS_P1;SDS_P2;PMS_P1;PMS_P2;Temp;Humidity;BMP_temperature;BMP_pressure;BME280_temperature;BME280_humidity;BME280_pressure;Samples;Min_cycle;Max_cycle;Signal;HPM_P1;HPM_P2
2021/09/02 00:02:38;;;;;;;20.30;10.80;;;;;;;16.17;76.59;99125.11;1739872;82;21323;-85
2021/09/02 00:05:44;;;;;;;19.60;10.20;;;;;;;16.18;76.80;99128.16;1739851;82;21849;-84
2021/09/02 00:08:49;;;;;;;17.45;9.73;;;;;;;16.19;77.49;99116.06;1738348;82;21204;-76
2021/09/02 00:11:54;;;;;;;30.48;11.10;;;;;;;16.19;76.75;99111.93;1739071;82;21738;-76
2021/09/02 00:15:00;;;;;;;20.32;9.80;;;;;;;16.17;77.35;99112.70;1739791;82;21292;-76
2021/09/02 00:18:06;;;;;;;18.02;10.68;;;;;;;16.20;78.00;99117.73;1738322;82;21299;-76
2021/09/02 00:21:11;;;;;;;19.60;10.90;;;;;;;16.19;77.92;99104.48;1738125;82;21204;-76
2021/09/02 00:24:17;;;;;;;17.20;10.88;;;;;;;16.22;78.06;99111.42;1738279;82;21311;-76
2021/09/02 00:27:22;;;;;;;19.77;11.40;;;;;;;16.20;77.52;99106.16;1738853;82;21306;-84
2021/09/02 00:30:27;;;;;;;21.35;11.18;;;;;;;16.10;76.94;99095.73;1739811;82;21817;-84
2021/09/02 00:33:32;;;;;;;15.28;9.75;;;;;;;16.01;76.96;99093.05;1738355;82;21304;-76
2021/09/02 00:36:37;;;;;;;15.95;10.48;;;;;;;15.97;78.42;99098.74;1739230;82;21208;-76
2021/09/02 00:39:42;;;;;;;20.65;11.75;;;;;;;15.97;78.85;99093.23;1738168;82;21244;-76
2021/09/02 00:42:48;;;;;;;16.55;11.12;;;;;;;15.94;77.69;99100.59;1738382;82;21852;-77
2021/09/02 00:45:53;;;;;;;18.12;10.82;;;;;;;15.90;78.32;99098.02;1738302;82;21335;-84
2021/09/02 00:48:59;;;;;;;21.85;11.68;;;;;;;15.91;79.23;99094.74;1738301;82;21702;-84
2021/09/02 00:52:07;;;;;;;25.35;9.98;;;;;;;15.91;79.85;99088.69;1738287;82;21305;-84
2021/09/02 00:55:15;;;;;;;25.50;10.80;;;;;;;15.92;79.62;99086.22;1737484;82;21169;-76
2021/09/02 00:58:21;;;;;;;22.32;11.12;;;;;;;15.92;80.09;99090.36;1706877;84;21806;-76
2021/09/02 01:01:27;;;;;;;20.92;10.00;;;;;;;15.94;80.28;99088.73;1706764;84;21319;-76
2021/09/02 01:04:33;;;;;;;17.05;10.53;;;;;;;15.95;80.30;99080.23;1706799;84;21304;-84
2021/09/02 01:07:39;;;;;;;23.35;10.63;;;;;;;15.96;79.77;99066.73;1690182;84;21319;-84
2021/09/02 01:10:45;;;;;;;29.80;11.80;;;;;;;15.96;80.10;99067.28;1705354;84;21316;-77
2021/09/02 01:13:51;;;;;;;20.43;11.08;;;;;;;15.97;80.49;99060.14;1705687;84;21300;-84
2021/09/02 01:17:03;;;;;;;17.95;10.78;;;;;;;16.02;80.61;99058.03;1705278;83;21193;-84
2021/09/02 01:20:08;;;;;;;19.52;10.53;;;;;;;16.02;80.56;99051.97;1706619;84;21726;-84
2021/09/02 01:23:13;;;;;;;17.42;10.55;;;;;;;16.04;80.63;99044.31;1706049;84;21806;-84
2021/09/02 01:26:26;;;;;;;20.72;10.35;;;;;;;16.06;80.67;99042.68;1706487;84;21320;-76
2021/09/02 01:29:33;;;;;;;16.10;10.08;;;;;;;16.07;80.13;99043.81;1706536;84;21294;-77
2021/09/02 01:32:41;;;;;;;22.98;10.03;;;;;;;16.04;79.52;99038.80;1705559;84;21303;-77
2021/09/02 01:35:46;;;;;;;14.98;9.93;;;;;;;16.03;80.03;99035.72;1706473;84;21887;-77
2021/09/02 01:38:50;;;;;;;16.57;9.65;;;;;;;16.04;80.33;99038.80;1706753;84;21654;-84
2021/09/02 01:41:55;;;;;;;19.25;9.58;;;;;;;16.08;80.44;99036.37;1706158;84;21344;-85
2021/09/02 01:45:00;;;;;;;18.42;8.80;;;;;;;16.10;80.35;99035.06;1706623;84;21280;-77
2021/09/02 01:48:07;;;;;;;16.15;8.30;;;;;;;16.14;80.34;99033.17;1705437;84;21237;-77
2021/09/02 01:51:12;;;;;;;16.90;9.83;;;;;;;16.17;80.19;99026.63;1706880;84;21195;-85
2021/09/02 01:54:17;;;;;;;15.43;8.98;;;;;;;16.18;80.07;99020.03;1706596;84;21304;-77
2021/09/02 01:57:23;;;;;;;18.75;9.98;;;;;;;16.19;79.92;99022.27;1695445;84;21284;-77
2021/09/02 02:00:28;;;;;;;17.95;10.15;;;;;;;16.19;79.84;99021.73;1716546;83;21201;-85
2021/09/02 02:03:34;;;;;;;15.83;8.60;;;;;;;16.19;79.52;99012.63;1703372;84;21178;-84
2021/09/02 02:06:40;;;;;;;21.25;9.30;;;;;;;16.17;79.39;99016.98;1716015;83;21204;-77
2021/09/02 02:09:47;;;;;;;16.62;8.98;;;;;;;16.16;79.49;99019.99;1702382;83;21837;-77
2021/09/02 02:12:53;;;;;;;16.67;8.73;;;;;;;16.16;79.31;99024.97;1715173;83;21355;-77
2021/09/02 02:15:58;;;;;;;15.35;8.93;;;;;;;16.15;79.17;99023.84;1703771;84;21268;-76
2021/09/02 02:19:03;;;;;;;14.20;9.10;;;;;;;16.09;79.13;99024.25;1715271;82;21173;-84
2021/09/02 02:22:09;;;;;;;17.32;9.10;;;;;;;16.06;79.42;99024.75;1703040;84;21659;-84
2021/09/02 02:25:16;;;;;;;13.98;8.78;;;;;;;16.06;79.35;99038.55;1715092;83;21303;-76
2021/09/02 02:28:23;;;;;;;12.33;8.40;;;;;;;16.04;79.12;99047.07;1774194;81;21899;-84
2021/09/02 02:31:28;;;;;;;13.35;9.75;;;;;;;15.93;78.80;99041.02;1773593;81;21176;-84
2021/09/02 02:34:34;;;;;;;13.53;9.53;;;;;;;15.78;79.29;99042.05;1766817;81;21302;-84
2021/09/02 02:37:38;;;;;;;17.10;10.00;;;;;;;15.71;80.06;99046.84;1766898;81;21339;-77
2021/09/02 02:40:45;;;;;;;16.20;9.73;;;;;;;15.67;80.87;99051.19;1767744;81;21596;-76
2021/09/02 02:43:51;;;;;;;14.75;10.03;;;;;;;15.65;81.34;99043.67;1766588;81;21149;-77
2021/09/02 02:46:56;;;;;;;15.68;10.00;;;;;;;15.63;81.24;99041.14;1767344;81;21824;-76
2021/09/02 02:50:02;;;;;;;19.95;10.55;;;;;;;15.60;81.15;99037.47;1768041;81;21144;-84
2021/09/02 02:53:08;;;;;;;59.75;34.08;;;;;;;15.58;81.20;99041.02;1767969;81;21315;-76
2021/09/02 02:56:14;;;;;;;25.92;14.20;;;;;;;15.55;81.37;99044.24;1767980;81;21275;-84
2021/09/02 02:59:20;;;;;;;21.95;12.58;;;;;;;15.46;81.56;99039.63;1768038;81;21284;-83
2021/09/02 03:02:26;;;;;;;20.72;12.58;;;;;;;15.48;81.92;99038.00;1766598;81;21187;-76
2021/09/02 03:05:32;;;;;;;20.92;13.13;;;;;;;15.54;82.20;99042.03;1766694;81;21264;-76
2021/09/02 03:08:37;;;;;;;21.42;13.40;;;;;;;15.62;82.48;99031.20;1767990;81;21347;-76
2021/09/02 03:11:42;;;;;;;18.67;12.50;;;;;;;15.71;82.43;99039.41;1767753;81;21168;-83
2021/09/02 03:14:47;;;;;;;23.05;13.62;;;;;;;15.74;81.59;99053.27;1767479;81;21335;-83
2021/09/02 03:17:54;;;;;;;21.37;13.90;;;;;;;15.64;81.50;99054.41;1766525;81;21192;-84
2021/09/02 03:21:00;;;;;;;23.57;14.13;;;;;;;15.52;82.29;99064.84;1764019;81;21268;-76
2021/09/02 03:24:06;;;;;;;20.25;13.58;;;;;;;15.40;83.48;99051.61;1737722;81;21283;-84
2021/09/02 03:27:10;;;;;;;20.97;13.03;;;;;;;15.32;84.70;99057.45;1737441;82;21220;-84
2021/09/02 03:30:16;;;;;;;18.98;12.07;;;;;;;15.28;85.49;99061.77;1751397;82;21258;-84
2021/09/02 03:33:22;;;;;;;18.23;12.50;;;;;;;15.26;86.02;99062.55;1751492;82;21291;-84
2021/09/02 03:36:28;;;;;;;20.15;12.05;;;;;;;15.25;85.93;99054.83;1761892;80;21167;-76
2021/09/02 03:39:34;;;;;;;22.17;14.58;;;;;;;15.28;85.72;99047.98;1756244;81;21870;-76
2021/09/02 03:42:40;;;;;;;26.27;13.25;;;;;;;15.30;85.61;99034.29;1750680;82;21270;-83
2021/09/02 03:45:46;;;;;;;25.15;12.58;;;;;;;15.32;85.62;99017.52;1759615;81;21278;-84
2021/09/02 03:48:52;;;;;;;22.90;12.20;;;;;;;15.34;85.75;99014.00;1729179;83;21186;-76
2021/09/02 03:51:57;;;;;;;25.70;12.82;;;;;;;15.41;85.75;99016.08;1730640;83;21210;-76
2021/09/02 03:55:03;;;;;;;25.80;13.80;;;;;;;15.48;85.65;99018.70;1716925;83;21338;-84
2021/09/02 03:58:08;;;;;;;21.17;12.47;;;;;;;15.53;85.59;99014.72;1762676;81;21310;-84
2021/09/02 04:01:14;;;;;;;25.02;11.65;;;;;;;15.57;85.70;99024.16;1768392;80;21875;-83
2021/09/02 04:04:20;;;;;;;24.05;12.98;;;;;;;15.60;85.71;99036.92;1739788;81;21211;-84
2021/09/02 04:07:26;;;;;;;25.70;14.05;;;;;;;15.64;85.88;99035.11;1748987;82;21676;-84
2021/09/02 04:10:33;;;;;;;23.80;15.03;;;;;;;15.70;85.70;99023.95;1726439;83;21189;-77
2021/09/02 04:13:39;;;;;;;31.37;17.17;;;;;;;15.76;85.24;99019.38;1731152;83;21318;-77
2021/09/02 04:16:44;;;;;;;27.32;15.75;;;;;;;15.80;84.86;99017.28;1765471;80;21867;-77
2021/09/02 04:19:50;;;;;;;27.98;15.40;;;;;;;15.81;84.82;99015.39;1735964;81;21304;-76
2021/09/02 04:22:56;;;;;;;25.85;15.28;;;;;;;15.82;84.87;99013.77;1731581;83;21324;-76
2021/09/02 04:26:01;;;;;;;29.95;14.87;;;;;;;15.82;85.00;99004.66;1734196;81;21326;-77
2021/09/02 04:29:05;;;;;;;25.12;14.68;;;;;;;15.84;85.21;99013.52;1759997;80;22207;-77
2021/09/02 04:32:12;;;;;;;23.45;14.15;;;;;;;15.88;85.36;99006.44;1739365;81;21322;-84
2021/09/02 04:35:18;;;;;;;25.25;15.80;;;;;;;15.91;85.74;99000.45;1751040;80;21188;-76
2021/09/02 04:38:29;;;;;;;22.82;15.20;;;;;;;15.97;86.03;99004.98;1696340;83;21702;-77
2021/09/02 04:41:35;;;;;;;22.73;15.20;;;;;;;16.04;86.07;98996.56;1746795;81;21346;-76
2021/09/02 04:44:40;;;;;;;26.17;15.43;;;;;;;16.09;86.09;98990.64;1750238;81;21323;-83
2021/09/02 04:47:45;;;;;;;21.70;13.60;;;;;;;16.19;86.21;98996.06;1744370;81;21334;-84
2021/09/02 04:50:50;;;;;;;18.92;12.95;;;;;;;16.26;86.46;98988.47;1752227;80;21285;-83
2021/09/02 04:53:55;;;;;;;24.60;13.38;;;;;;;16.32;86.90;98983.34;1752324;80;21872;-83
2021/09/02 04:57:01;;;;;;;21.95;12.93;;;;;;;16.34;87.24;98969.61;1755793;81;21263;-84
2021/09/02 05:00:06;;;;;;;21.85;13.75;;;;;;;16.36;87.29;98959.15;1738915;81;21326;-83
2021/09/02 05:03:12;;;;;;;21.62;14.68;;;;;;;16.41;87.21;98963.92;1745040;80;21640;-83
2021/09/02 05:06:19;;;;;;;24.77;15.55;;;;;;;16.43;87.30;98956.26;1744833;81;21335;-83
2021/09/02 05:09:25;;;;;;;24.00;15.38;;;;;;;16.50;87.44;98950.58;1742343;80;21259;-83
2021/09/02 05:12:31;;;;;;;31.93;15.58;;;;;;;16.59;87.68;98956.82;1741773;80;21314;-83
2021/09/02 05:15:38;;;;;;;23.12;14.68;;;;;;;16.67;87.44;98956.14;1752059;80;21303;-83
2021/09/02 05:18:44;;;;;;;19.98;13.43;;;;;;;16.68;87.10;98958.64;1744301;80;21239;-76
2021/09/02 05:21:50;;;;;;;19.30;13.90;;;;;;;16.70;87.12;98956.48;1747860;80;21835;-75
2021/09/02 05:24:57;;;;;;;30.37;14.33;;;;;;;16.73;87.09;98955.16;1744315;80;21279;-83
2021/09/02 05:28:03;;;;;;;25.00;16.65;;;;;;;16.79;87.17;98950.84;1745702;80;21320;-83
2021/09/02 05:31:10;;;;;;;30.30;19.70;;;;;;;16.86;86.81;98957.61;1752800;80;21160;-77
2021/09/02 05:34:15;;;;;;;29.95;16.90;;;;;;;16.90;86.64;98958.78;1749969;79;21176;-84
2021/09/02 05:37:21;;;;;;;19.80;14.58;;;;;;;16.96;86.82;98951.42;1745640;80;21208;-83
2021/09/02 05:40:28;;;;;;;18.82;12.93;;;;;;;17.01;86.46;98966.14;1745495;79;21263;-83
2021/09/02 05:43:44;;;;;;;18.52;12.35;;;;;;;17.03;86.44;98973.66;1744205;79;21374;-83
2021/09/02 05:46:49;;;;;;;20.75;12.88;;;;;;;17.07;86.57;98973.97;1740507;81;21749;-84
2021/09/02 05:49:55;;;;;;;22.50;10.45;;;;;;;17.12;86.47;98980.95;1744443;79;21275;-83
2021/09/02 05:53:01;;;;;;;17.35;9.73;;;;;;;17.19;86.30;98980.80;1741034;79;21180;-83
2021/09/02 05:56:05;;;;;;;13.78;9.48;;;;;;;17.24;85.66;98985.86;1738480;80;22186;-84
2021/09/02 05:59:11;;;;;;;12.63;8.93;;;;;;;17.26;85.36;98984.22;1738771;79;21208;-77
2021/09/02 06:02:17;;;;;;;12.37;8.73;;;;;;;17.30;85.44;98986.77;1737591;79;21180;-77
2021/09/02 06:05:23;;;;;;;11.20;7.53;;;;;;;17.35;85.34;98987.69;1739363;79;22197;-76
2021/09/02 06:08:29;;;;;;;17.23;10.65;;;;;;;17.38;84.89;98983.05;1738596;80;21457;-77
2021/09/02 06:11:35;;;;;;;23.47;12.88;;;;;;;17.43;84.86;98977.31;1742826;81;21222;-76
2021/09/02 06:14:41;;;;;;;29.45;14.38;;;;;;;17.48;84.59;98975.45;1739444;81;21226;-76
2021/09/02 06:17:47;;;;;;;16.90;10.85;;;;;;;17.54;84.30;98977.73;1739368;80;21225;-76
2021/09/02 06:20:54;;;;;;;19.40;12.15;;;;;;;17.58;83.78;98975.59;1738740;79;21176;-76
2021/09/02 06:24:00;;;;;;;13.53;7.25;;;;;;;17.64;83.26;98982.03;1741476;79;21200;-76
2021/09/02 06:27:06;;;;;;;11.50;6.62;;;;;;;17.67;82.40;98989.00;1745812;79;21681;-76
2021/09/02 06:30:13;;;;;;;32.42;17.98;;;;;;;17.67;82.62;98980.70;1728767;80;21196;-76
2021/09/02 06:33:18;;;;;;;7.37;5.70;;;;;;;17.68;82.14;98977.67;1699754;82;21178;-76
2021/09/02 06:36:24;;;;;;;9.53;6.17;;;;;;;17.69;81.30;98988.18;1679997;83;21855;-76
2021/09/02 06:39:30;;;;;;;9.43;6.08;;;;;;;17.68;81.31;98984.58;1682781;83;22017;-75
2021/09/02 06:42:35;;;;;;;11.68;6.17;;;;;;;17.70;81.26;98981.03;1716120;81;21462;-85
2021/09/02 06:45:41;;;;;;;6.95;5.90;;;;;;;17.74;81.09;98972.55;1718725;81;21469;-76
2021/09/02 06:48:47;;;;;;;8.43;5.47;;;;;;;17.76;81.01;98971.73;1720244;81;21173;-76
2021/09/02 06:51:53;;;;;;;6.65;5.45;;;;;;;17.73;80.93;98969.98;1720198;81;21647;-77
2021/09/02 06:54:59;;;;;;;8.13;5.62;;;;;;;17.68;80.47;98967.98;1730587;81;21161;-77
2021/09/02 06:58:05;;;;;;;18.75;6.03;;;;;;;17.61;79.88;98964.04;1733377;81;21548;-77
2021/09/02 07:01:13;;;;;;;9.10;5.85;;;;;;;17.57;80.18;98962.88;1690684;83;21626;-77
2021/09/02 07:04:19;;;;;;;13.28;6.05;;;;;;;17.53;80.29;98976.91;1700378;82;21199;-78
2021/09/02 07:07:26;;;;;;;13.25;5.60;;;;;;;17.49;80.31;98968.83;1698343;83;21223;-77
2021/09/02 07:10:31;;;;;;;10.53;5.92;;;;;;;17.48;80.57;98967.16;1686934;83;21305;-78
2021/09/02 07:13:37;;;;;;;9.55;5.50;;;;;;;17.44;80.90;98965.98;1679412;83;21191;-81
2021/09/02 07:16:44;;;;;;;7.15;5.33;;;;;;;17.38;81.31;98960.10;1685637;83;63693;-80
2021/09/02 07:19:51;;;;;;;7.80;5.78;;;;;;;17.32;82.12;98972.18;1665887;84;21518;-79
2021/09/02 07:22:56;;;;;;;9.70;5.85;;;;;;;17.23;83.15;98954.34;1725946;81;21192;-80
2021/09/02 07:26:03;;;;;;;9.45;6.92;;;;;;;17.13;84.38;98965.25;1723552;81;21531;-79
2021/09/02 07:38:02;;;;;;;7.42;6.22;;;;;;;16.64;89.64;98980.09;1737048;80;21130;-80
2021/09/02 07:41:14;;;;;;;11.33;5.95;;;;;;;16.45;91.50;98979.45;1720725;81;21215;-79
2021/09/02 07:44:21;;;;;;;11.22;6.70;;;;;;;16.31;92.61;98987.19;1730906;81;21172;-79
2021/09/02 07:47:33;;;;;;;7.92;6.87;;;;;;;16.23;93.48;98994.47;1723294;81;21570;-79
2021/09/02 07:50:38;;;;;;;6.55;5.03;;;;;;;16.19;94.46;98990.55;1664337;84;21199;-79
2021/09/02 07:53:45;;;;;;;9.63;7.10;;;;;;;16.15;95.65;98986.05;1659181;84;21207;-80
2021/09/02 07:56:51;;;;;;;11.95;6.80;;;;;;;16.18;96.49;98994.36;1718568;81;21350;-80
2021/09/02 07:59:57;;;;;;;12.25;7.42;;;;;;;16.20;96.67;98996.36;1721907;80;21610;-80
2021/09/02 08:03:04;;;;;;;12.88;6.95;;;;;;;16.21;96.86;98997.48;1710174;81;21332;-79
2021/09/02 08:06:10;;;;;;;8.90;6.67;;;;;;;16.21;96.97;98993.89;1721609;81;21262;-79
2021/09/02 08:09:15;;;;;;;7.62;6.33;;;;;;;16.21;97.15;98997.48;1710200;81;21236;-80
2021/09/02 08:12:21;;;;;;;13.65;7.40;;;;;;;16.22;97.41;98984.52;1713519;81;21198;-78
2021/09/02 08:15:27;;;;;;;9.55;6.42;;;;;;;16.25;97.84;98996.45;1711560;81;21213;-79
2021/09/02 08:18:34;;;;;;;12.88;7.12;;;;;;;16.27;97.92;99002.55;1716593;81;21387;-79
2021/09/02 08:21:39;;;;;;;10.82;6.80;;;;;;;16.28;98.04;98998.73;1712163;81;21171;-79
2021/09/02 08:24:47;;;;;;;11.18;6.10;;;;;;;16.32;97.79;99006.25;1709778;81;21241;-79
2021/09/02 08:27:53;;;;;;;13.78;6.60;;;;;;;16.37;97.73;99005.52;1715013;81;21817;-83
2021/09/02 08:30:59;;;;;;;11.38;6.65;;;;;;;16.42;97.45;99001.50;1712803;81;21355;-79
2021/09/02 08:34:05;;;;;;;9.53;7.00;;;;;;;16.48;97.53;99012.92;1710833;81;21480;-79
2021/09/02 08:37:09;;;;;;;8.63;5.90;;;;;;;16.51;97.65;99013.80;1710922;81;21291;-79
2021/09/02 08:40:15;;;;;;;10.50;6.58;;;;;;;16.53;97.46;99017.16;1711258;81;21232;-78
2021/09/02 08:43:21;;;;;;;16.02;6.85;;;;;;;16.55;97.78;99020.50;1713623;81;22307;-79
2021/09/02 08:46:28;;;;;;;8.80;6.75;;;;;;;16.56;97.84;99013.92;1717685;81;21296;-78
2021/09/02 08:49:29;;;;;;;7.60;5.45;;;;;;;16.57;98.48;99016.97;1717436;81;21311;-78
2021/09/02 08:52:34;;;;;;;11.38;7.30;;;;;;;16.59;99.30;99024.45;1723629;81;21352;-78
2021/09/02 08:55:39;;;;;;;9.43;6.50;;;;;;;16.60;99.58;99016.45;1717340;81;22332;-78
2021/09/02 08:58:44;;;;;;;8.58;5.62;;;;;;;16.66;99.84;99013.82;1712636;81;21452;-79
2021/09/02 09:01:53;;;;;;;8.13;5.80;;;;;;;16.71;99.73;99013.38;1715884;81;21462;-78
2021/09/02 09:05:25;;;;;;;10.45;6.20;;;;;;;16.76;99.07;99019.02;1697704;81;21204;-78
2021/09/02 09:08:38;;;;;;;9.03;6.10;;;;;;;16.83;98.89;99019.69;1711063;81;22593;-77
2021/09/02 09:12:00;;;;;;;9.08;5.78;;;;;;;16.90;98.72;99022.31;1714086;81;21215;-77
2021/09/02 09:15:04;;;;;;;10.00;7.08;;;;;;;16.98;98.29;99018.28;1681698;81;22407;-82
2021/09/02 09:18:31;;;;;;;10.78;7.55;;;;;;;17.04;97.99;99023.66;1698449;81;21249;-78
2021/09/02 09:21:36;;;;;;;13.22;9.10;;;;;;;17.14;97.92;99024.38;1710578;81;21191;-78
2021/09/02 09:24:59;;;;;;;16.30;9.15;;;;;;;17.23;96.93;99015.97;1710871;81;21185;-77
2021/09/02 09:28:09;;;;;;;12.63;8.25;;;;;;;17.33;97.35;99020.28;1711873;81;21185;-78
2021/09/02 09:31:42;;;;;;;13.08;8.85;;;;;;;17.43;96.85;99018.77;1712762;81;21281;-78
2021/09/02 09:34:58;;;;;;;8.58;6.90;;;;;;;17.50;95.59;99021.66;1718015;81;22191;-78
2021/09/02 09:38:25;;;;;;;11.48;7.45;;;;;;;17.54;94.52;99011.75;1715104;81;22217;-77
2021/09/02 09:41:50;;;;;;;11.78;6.40;;;;;;;17.68;94.83;99017.77;1697802;81;21187;-76
2021/09/02 09:44:56;;;;;;;11.18;7.17;;;;;;;17.80;92.40;99014.94;1712922;81;21175;-79
2021/09/02 09:48:02;;;;;;;10.78;7.08;;;;;;;17.90;90.67;99012.31;1708736;81;21865;-78
2021/09/02 09:51:24;;;;;;;11.35;7.15;;;;;;;18.04;89.59;99019.70;1713648;81;21294;-78
2021/09/02 09:54:33;;;;;;;8.48;6.90;;;;;;;18.18;88.90;99028.45;1712417;82;21745;-77
2021/09/02 09:57:43;;;;;;;8.85;7.20;;;;;;;18.33;88.58;99021.17;1710668;81;21202;-78
2021/09/02 10:00:48;;;;;;;8.63;6.95;;;;;;;18.53;88.03;99026.11;1714421;81;21282;-79
2021/09/02 10:03:54;;;;;;;10.43;7.87;;;;;;;18.74;87.11;99028.60;1702039;82;22180;-78
2021/09/02 10:07:01;;;;;;;13.15;8.43;;;;;;;18.95;85.57;99028.25;1717247;81;21233;-78
2021/09/02 10:10:09;;;;;;;11.93;9.78;;;;;;;19.19;84.41;99029.30;1722053;81;21295;-79
2021/09/02 10:13:14;;;;;;;11.10;9.20;;;;;;;19.37;84.11;99031.13;1720739;81;21218;-79
2021/09/02 10:16:20;;;;;;;20.40;10.28;;;;;;;19.57;81.70;99017.13;1715924;81;21285;-79
2021/09/02 10:19:27;;;;;;;12.73;11.40;;;;;;;19.66;79.89;99019.17;1713952;81;21278;-78
2021/09/02 10:22:34;;;;;;;13.13;11.75;;;;;;;19.71;79.05;99021.70;1681813;83;21317;-78
2021/09/02 10:25:43;;;;;;;17.75;13.30;;;;;;;19.73;78.60;99011.19;1680012;83;22882;-79
2021/09/02 10:28:51;;;;;;;19.48;16.30;;;;;;;19.74;76.60;99014.23;1683027;83;21194;-78
2021/09/02 10:31:57;;;;;;;15.60;13.95;;;;;;;19.74;77.60;99011.46;1678564;83;21653;-78
2021/09/02 10:35:12;;;;;;;21.65;16.15;;;;;;;19.78;77.01;99003.72;1653372;84;21339;-78
2021/09/02 11:02:37;;;;;;;6.97;5.90;;;;;;;19.95;70.31;99032.69;1829813;76;22211;-79
2021/09/02 11:05:44;;;;;;;9.75;7.22;;;;;;;19.89;69.76;99019.88;1798876;78;22289;-79
2021/09/02 11:08:53;;;;;;;10.53;5.72;;;;;;;19.89;70.60;99030.41;1796801;79;21829;-80
2021/09/02 11:12:03;;;;;;;6.28;5.65;;;;;;;19.85;70.19;99023.73;1795871;78;21231;-78
2021/09/02 11:15:14;;;;;;;6.20;5.60;;;;;;;19.76;71.24;99017.05;1793521;78;21301;-79
2021/09/02 11:18:21;;;;;;;8.18;6.25;;;;;;;19.64;71.23;99029.70;1762168;80;21220;-80
2021/09/02 11:21:54;;;;;;;7.08;5.53;;;;;;;19.54;72.05;99026.00;1756987;80;21193;-79
2021/09/02 11:24:59;;;;;;;6.37;5.30;;;;;;;19.51;72.18;99020.42;1735102;81;21192;-78
2021/09/02 11:28:06;;;;;;;9.43;5.60;;;;;;;19.39;71.79;99021.17;1738513;80;21200;-79
2021/09/02 11:31:16;;;;;;;14.03;5.67;;;;;;;19.32;71.80;99037.19;1736920;81;21374;-80
2021/09/02 11:34:22;;;;;;;7.15;5.05;;;;;;;19.24;71.33;99031.56;1736318;81;21255;-80
2021/09/02 11:37:29;;;;;;;6.55;4.83;;;;;;;19.26;72.02;99032.70;1736170;81;22225;-79
2021/09/02 11:40:38;;;;;;;7.17;5.45;;;;;;;19.32;72.25;99023.32;1731357;81;21298;-80
2021/09/02 11:43:48;;;;;;;10.23;4.83;;;;;;;19.33;72.19;99041.62;1759488;80;21576;-79
2021/09/02 11:46:54;;;;;;;7.45;5.05;;;;;;;19.20;71.89;99045.69;1750566;80;21176;-79
2021/09/02 11:50:06;;;;;;;5.62;4.20;;;;;;;19.01;70.72;99033.31;1743398;80;21219;-79
2021/09/02 11:53:17;;;;;;;7.20;4.20;;;;;;;18.84;71.39;99039.78;1764922;80;21319;-79
2021/09/02 11:56:25;;;;;;;5.45;4.00;;;;;;;18.65;72.34;99039.83;1732398;82;21391;-80
2021/09/02 11:59:30;;;;;;;4.80;4.30;;;;;;;18.45;74.19;99041.81;1765094;80;21291;-78
2021/09/02 12:02:36;;;;;;;6.92;4.45;;;;;;;18.28;76.10;99048.78;1697090;82;21211;-79
2021/09/02 12:05:46;;;;;;;12.30;4.70;;;;;;;18.23;77.03;99046.50;1694405;84;22445;-78
2021/09/02 12:08:51;;;;;;;8.38;4.00;;;;;;;18.22;76.84;99042.07;1692556;82;21200;-79
2021/09/02 12:11:59;;;;;;;4.80;3.27;;;;;;;18.27;76.49;99044.35;1726364;81;21258;-79
2021/09/02 12:15:10;;;;;;;6.72;3.50;;;;;;;18.45;76.06;99046.52;1686309;84;22172;-79
2021/09/02 12:18:18;;;;;;;3.75;3.05;;;;;;;18.57;72.71;99042.49;1718674;82;21192;-79
2021/09/02 12:21:31;;;;;;;5.83;2.80;;;;;;;18.63;70.74;99039.23;1692040;84;21244;-78
2021/09/02 12:24:39;;;;;;;6.15;3.20;;;;;;;18.69;70.02;99040.18;1722242;81;21617;-79
2021/09/02 12:27:56;;;;;;;7.53;3.10;;;;;;;18.72;69.49;99039.64;1719202;81;21209;-78
2021/09/02 12:31:02;;;;;;;5.65;3.02;;;;;;;18.79;67.97;99038.91;1726214;82;21757;-79
2021/09/02 12:34:14;;;;;;;10.08;3.02;;;;;;;18.84;67.52;99041.17;1724702;82;21910;-79
2021/09/02 12:37:24;;;;;;;4.60;2.65;;;;;;;18.90;65.43;99047.59;1706927;82;21606;-79
2021/09/02 12:40:29;;;;;;;7.53;2.85;;;;;;;18.96;61.47;99049.34;1724861;82;21514;-79
2021/09/02 12:43:34;;;;;;;6.62;3.52;;;;;;;19.03;60.94;99033.87;1718247;82;21223;-78
2021/09/02 12:53:39;;;;;;;7.58;3.67;;;;;;;19.21;59.71;99048.73;1843604;76;28172;-80
2021/09/02 12:56:45;;;;;;;7.42;3.25;;;;;;;19.12;59.68;99054.47;1814917;77;21303;-78
2021/09/02 12:59:50;;;;;;;5.20;3.45;;;;;;;18.99;60.29;99052.12;1820579;77;21871;-78
2021/09/02 13:03:00;;;;;;;5.45;4.20;;;;;;;18.97;61.40;99057.94;1722103;82;21314;-79
2021/09/02 13:06:06;;;;;;;6.60;3.52;;;;;;;19.02;60.77;99058.53;1743368;81;21361;-79
2021/09/02 13:09:11;;;;;;;5.67;3.27;;;;;;;19.10;61.03;99072.76;1742899;81;21322;-80
2021/09/02 13:12:16;;;;;;;6.55;3.50;;;;;;;19.20;60.53;99068.42;1736030;81;21383;-79
2021/09/02 13:15:22;;;;;;;5.72;3.27;;;;;;;19.24;60.54;99070.92;1735781;81;21374;-80
2021/09/02 13:18:30;;;;;;;5.30;3.60;;;;;;;19.23;59.72;99081.17;1739189;81;21386;-78
2021/09/02 13:21:37;;;;;;;9.05;3.95;;;;;;;19.20;60.50;99084.50;1734156;81;21216;-78
2021/09/02 13:24:42;;;;;;;5.72;3.80;;;;;;;19.10;60.88;99089.39;1713059;81;21728;-78
2021/09/02 13:27:48;;;;;;;7.22;4.45;;;;;;;18.99;61.70;99094.52;1739823;81;21825;-78
2021/09/02 13:30:53;;;;;;;13.43;3.80;;;;;;;18.91;61.66;99097.74;1737917;81;21168;-81
2021/09/02 13:34:03;;;;;;;8.75;4.80;;;;;;;18.86;61.60;99114.31;1724005;82;21204;-79
2021/09/02 13:37:09;;;;;;;8.05;5.10;;;;;;;18.77;58.18;99102.02;1744696;81;21338;-79
2021/09/02 13:40:25;;;;;;;7.25;3.67;;;;;;;18.64;58.43;99114.31;1741836;81;21342;-79
2021/09/02 13:43:33;;;;;;;14.13;3.95;;;;;;;18.49;56.86;99106.66;1726656;81;21851;-79
2021/09/02 13:46:44;;;;;;;9.30;3.25;;;;;;;18.26;55.22;99128.48;1743317;81;21319;-80
2021/09/02 13:49:58;;;;;;;15.55;4.25;;;;;;;18.01;54.17;99159.36;1705572;83;21299;-79
2021/09/02 13:53:06;;;;;;;13.15;4.87;;;;;;;17.79;55.90;99159.85;1735748;82;21277;-79
2021/09/02 13:56:11;;;;;;;11.70;3.77;;;;;;;17.55;55.91;99157.20;1770565;80;21334;-77
2021/09/02 13:59:16;;;;;;;10.93;3.92;;;;;;;17.36;56.93;99162.13;1758664;81;21765;-77
2021/09/02 14:02:22;;;;;;;9.73;4.40;;;;;;;17.23;59.05;99162.42;1774037;79;21311;-78
2021/09/02 14:05:30;;;;;;;12.35;4.30;;;;;;;17.08;61.95;99155.23;1700919;82;21334;-78
2021/09/02 14:08:41;;;;;;;18.10;4.50;;;;;;;16.89;62.23;99158.72;1725092;83;21807;-78
2021/09/02 14:11:56;;;;;;;11.65;3.90;;;;;;;16.82;62.37;99187.00;1724661;83;21212;-78
2021/09/02 14:21:54;;;;;;;11.25;4.30;;;;;;;16.86;58.63;99197.87;1854728;76;28572;-78
2021/09/02 14:25:00;;;;;;;12.60;4.40;;;;;;;16.86;59.15;99195.94;1782912;80;21890;-78
2021/09/02 14:28:06;;;;;;;26.00;4.95;;;;;;;16.89;58.06;99208.44;1785209;80;21342;-78
2021/09/02 14:31:12;;;;;;;17.37;4.33;;;;;;;16.93;57.82;99201.86;1783474;80;22502;-78
2021/09/02 14:34:17;;;;;;;15.93;5.12;;;;;;;16.99;58.31;99202.28;1784413;80;21193;-78
2021/09/02 14:37:23;;;;;;;14.85;4.90;;;;;;;17.04;56.86;99221.72;1785189;79;21284;-78
2021/09/02 14:40:28;;;;;;;8.58;4.25;;;;;;;17.06;56.23;99218.99;1784598;80;21341;-78
2021/09/02 14:43:33;;;;;;;10.28;3.70;;;;;;;17.04;54.65;99219.80;1784359;80;21235;-78
2021/09/02 14:46:39;;;;;;;8.05;3.98;;;;;;;16.98;53.34;99221.30;1784041;80;21309;-77
2021/09/02 14:49:46;;;;;;;15.00;3.42;;;;;;;16.86;51.64;99227.70;1784393;80;21745;-77
2021/09/02 14:52:51;;;;;;;11.50;3.52;;;;;;;16.74;51.78;99228.80;1779513;79;21199;-78
2021/09/02 14:55:58;;;;;;;11.78;3.65;;;;;;;16.63;51.14;99242.06;1772090;81;21242;-77
2021/09/02 14:59:05;;;;;;;11.80;4.05;;;;;;;16.50;51.70;99242.59;1774464;81;21321;-78
2021/09/02 15:02:11;;;;;;;11.25;3.83;;;;;;;16.40;51.94;99227.72;1742329;81;21333;-77
2021/09/02 15:05:19;;;;;;;9.70;3.27;;;;;;;16.34;52.17;99237.27;1743712;82;21231;-78
2021/09/02 15:08:26;;;;;;;6.85;3.00;;;;;;;16.30;52.60;99240.74;1764639;81;21300;-78
2021/09/02 15:11:31;;;;;;;15.83;4.10;;;;;;;16.25;52.65;99252.50;1774340;81;21191;-78
2021/09/02 15:14:36;;;;;;;10.48;3.45;;;;;;;16.21;52.70;99254.59;1773728;81;21299;-78
2021/09/02 15:17:43;;;;;;;15.58;3.10;;;;;;;16.18;52.74;99252.30;1773646;81;21180;-78